Time,TemperatureF,DewpointF,PressureIn,WindDirection,WindDirectionDegrees,WindSpeedMPH,WindSpeedGustMPH,Humidity,HourlyPrecipIn,Conditions,Clouds,dailyrainin,SoftwareType,DateUTC
2013-04-15 00:02:00,66.2,65.9,29.82,SSE,157,3.8,-999.0,99,-99.99,,,0.00,Acu-Link.com,2013-04-15 05:02:00,
2013-04-15 00:17:00,66.4,66.1,29.82,South,180,4.3,-999.0,99,-99.99,,,0.00,Acu-Link.com,2013-04-15 05:17:00,
2013-04-15 00:33:00,66.0,65.7,29.82,SSW,202,2.7,-999.0,99,-99.99,,,0.00,Acu-Link.com,2013-04-15 05:33:00,
2013-04-15 00:48:00,65.8,65.6,29.83,SE,135,2.7,-999.0,99,-99.99,,,0.00,Acu-Link.com,2013-04-15 05:48:00,
2013-04-15 01:03:00,65.7,65.4,29.83,ESE,112,2.7,-999.0,99,-99.99,,,0.00,Acu-Link.com,2013-04-15 06:03:00,
2013-04-15 01:18:00,65.7,65.4,29.82,ESE,112,3.8,-999.0,99,-99.99,,,0.00,Acu-Link.com,2013-04-15 06:18:00,
2013-04-15 01:33:00,65.5,65.2,29.82,SSE,157,4.3,-999.0,99,-99.99,,,0.00,Acu-Link.com,2013-04-15 06:33:00,
2013-04-15 01:48:00,66.2,65.9,29.82,SSE,157,4.7,-999.0,99,-99.99,,,0.00,Acu-Link.com,2013-04-15 06:48:00,
2013-04-15 02:04:00,66.2,65.9,29.81,SSW,202,2.2,-999.0,99,-99.99,,,0.00,Acu-Link.com,2013-04-15 07:04:00,
2013-04-15 02:50:00,65.7,65.4,29.82,SSE,157,2.7,-999.0,99,-99.99,,,0.00,Acu-Link.com,2013-04-15 07:50:00,
2013-04-15 03:05:00,65.7,65.4,29.81,South,180,4.3,-999.0,99,-99.99,,,0.00,Acu-Link.com,2013-04-15 08:05:00,
2013-04-15 03:21:00,65.7,65.4,29.81,SE,135,5.1,-999.0,99,-99.99,,,0.00,Acu-Link.com,2013-04-15 08:21:00,
2013-04-15 03:51:00,65.3,65.0,29.82,SSE,157,3.1,-999.0,99,-99.99,,,0.00,Acu-Link.com,2013-04-15 08:51:00,
2013-04-15 04:06:00,65.3,65.0,29.83,South,180,2.7,-999.0,99,-99.99,,,0.00,Acu-Link.com,2013-04-15 09:06:00,
2013-04-15 04:21:00,65.3,65.0,29.83,SSE,157,4.7,-999.0,99,-99.99,,,0.00,Acu-Link.com,2013-04-15 09:21:00,
2013-04-15 04:37:00,65.3,65.0,29.84,SSE,157,5.1,-999.0,99,-99.99,,,0.00,Acu-Link.com,2013-04-15 09:37:00,
2013-04-15 04:52:00,65.1,64.8,29.84,SE,135,4.7,-999.0,99,-99.99,,,0.00,Acu-Link.com,2013-04-15 09:52:00,
2013-04-15 05:07:00,65.1,64.8,29.84,SSE,157,3.8,-999.0,99,-99.99,,,0.00,Acu-Link.com,2013-04-15 10:07:00,
2013-04-15 05:23:00,65.1,64.8,29.85,South,180,3.8,-999.0,99,-99.99,,,0.00,Acu-Link.com,2013-04-15 10:23:00,
2013-04-15 05:38:00,65.5,65.2,29.85,SSE,157,5.1,-999.0,99,-99.99,,,0.00,Acu-Link.com,2013-04-15 10:38:00,
2013-04-15 05:53:00,65.5,65.2,29.85,SSE,157,5.1,-999.0,99,-99.99,,,0.00,Acu-Link.com,2013-04-15 10:53:00,
2013-04-15 06:09:00,65.5,65.2,29.85,SE,135,5.1,-999.0,99,-99.99,,,0.00,Acu-Link.com,2013-04-15 11:09:00,
2013-04-15 06:24:00,65.3,65.0,29.85,South,180,6.3,-999.0,99,-99.99,,,0.00,Acu-Link.com,2013-04-15 11:24:00,
2013-04-15 06:39:00,65.3,65.0,29.86,SSE,157,4.3,-999.0,99,-99.99,,,0.00,Acu-Link.com,2013-04-15 11:39:00,
2013-04-15 06:54:00,65.3,65.0,29.87,South,180,4.3,-999.0,99,-99.99,,,0.00,Acu-Link.com,2013-04-15 11:54:00,
2013-04-15 07:10:00,65.3,65.0,29.88,SE,135,7.4,-999.0,99,-99.99,,,0.00,Acu-Link.com,2013-04-15 12:10:00,
2013-04-15 07:25:00,65.5,65.2,29.88,ESE,112,4.7,-999.0,99,-99.99,,,0.00,Acu-Link.com,2013-04-15 12:25:00,
2013-04-15 07:40:00,65.8,65.6,29.89,ESE,112,3.8,-999.0,99,-99.99,,,0.00,Acu-Link.com,2013-04-15 12:40:00,
2013-04-15 07:56:00,66.2,65.9,29.89,SSE,157,2.2,-999.0,99,-99.99,,,0.00,Acu-Link.com,2013-04-15 12:56:00,
2013-04-15 08:26:00,67.6,67.1,29.90,SSW,202,4.3,-999.0,98,-99.99,,,0.00,Acu-Link.com,2013-04-15 13:26:00,
2013-04-15 08:42:00,67.8,67.2,29.90,SE,135,3.1,-999.0,98,-99.99,,,0.00,Acu-Link.com,2013-04-15 13:42:00,
2013-04-15 08:57:00,70.7,67.9,29.90,SSW,202,3.1,-999.0,91,-99.99,,,0.00,Acu-Link.com,2013-04-15 13:57:00,
2013-04-15 09:12:00,71.8,68.0,29.90,ESE,112,3.1,-999.0,88,-99.99,,,0.00,Acu-Link.com,2013-04-15 14:12:00,
2013-04-15 09:27:00,73.8,67.9,29.90,SSE,157,3.8,-999.0,82,-99.99,,,0.00,Acu-Link.com,2013-04-15 14:27:00,
2013-04-15 09:43:00,73.2,68.1,29.91,SSW,202,3.8,-999.0,84,-99.99,,,0.00,Acu-Link.com,2013-04-15 14:43:00,
2013-04-15 09:58:00,74.5,67.9,29.91,SSE,157,5.8,-999.0,80,-99.99,,,0.00,Acu-Link.com,2013-04-15 14:58:00,
2013-04-15 10:13:00,75.0,68.1,29.92,SSE,157,4.3,-999.0,79,-99.99,,,0.00,Acu-Link.com,2013-04-15 15:13:00,
2013-04-15 10:29:00,75.7,67.6,29.92,ESE,112,3.8,-999.0,76,-99.99,,,0.00,Acu-Link.com,2013-04-15 15:29:00,
2013-04-15 10:44:00,76.5,68.3,29.93,SSW,202,5.1,-999.0,76,-99.99,,,0.00,Acu-Link.com,2013-04-15 15:44:00,
2013-04-15 10:59:00,77.7,68.8,29.92,South,180,4.3,-999.0,74,-99.99,,,0.00,Acu-Link.com,2013-04-15 15:59:00,
2013-04-15 11:15:00,77.9,68.1,29.92,ESE,112,5.8,-999.0,72,-99.99,,,0.00,Acu-Link.com,2013-04-15 16:15:00,
2013-04-15 11:30:00,78.8,69.0,29.92,South,180,7.4,-999.0,72,-99.99,,,0.00,Acu-Link.com,2013-04-15 16:30:00,
2013-04-15 11:45:00,80.1,69.0,29.92,SSE,157,6.7,-999.0,69,-99.99,,,0.00,Acu-Link.com,2013-04-15 16:45:00,
2013-04-15 12:00:00,80.6,69.5,29.92,WSW,247,6.3,-999.0,69,-99.99,,,0.00,Acu-Link.com,2013-04-15 17:00:00,
2013-04-15 12:16:00,81.3,69.7,29.92,SW,225,3.8,-999.0,68,-99.99,,,0.00,Acu-Link.com,2013-04-15 17:16:00,
2013-04-15 12:31:00,81.5,69.9,29.92,South,180,2.7,-999.0,68,-99.99,,,0.00,Acu-Link.com,2013-04-15 17:31:00,
2013-04-15 12:46:00,82.2,70.1,29.91,South,180,5.8,-999.0,67,-99.99,,,0.00,Acu-Link.com,2013-04-15 17:46:00,
2013-04-15 13:02:00,82.6,70.5,29.91,South,180,7.8,-999.0,67,-99.99,,,0.00,Acu-Link.com,2013-04-15 18:02:00,
2013-04-15 13:32:00,83.3,70.3,29.89,SSE,157,4.7,-999.0,65,-99.99,,,0.00,Acu-Link.com,2013-04-15 18:32:00,
2013-04-15 13:48:00,84.2,71.6,29.90,SSE,157,6.7,-999.0,66,-99.99,,,0.00,Acu-Link.com,2013-04-15 18:48:00,
2013-04-15 14:03:00,85.3,70.3,29.89,SE,135,8.3,-999.0,61,-99.99,,,0.00,Acu-Link.com,2013-04-15 19:03:00,
2013-04-15 14:18:00,84.2,70.7,29.89,SE,135,9.4,-999.0,64,-99.99,,,0.00,Acu-Link.com,2013-04-15 19:18:00,
2013-04-15 14:33:00,84.7,69.3,29.89,South,180,4.7,-999.0,60,-99.99,,,0.00,Acu-Link.com,2013-04-15 19:33:00,
2013-04-15 14:48:00,85.6,71.1,29.88,South,180,7.4,-999.0,62,-99.99,,,0.00,Acu-Link.com,2013-04-15 19:48:00,
2013-04-15 15:04:00,85.3,70.3,29.88,ESE,112,3.1,-999.0,61,-99.99,,,0.00,Acu-Link.com,2013-04-15 20:04:00,
2013-04-15 15:19:00,84.7,70.2,29.87,ESE,112,7.4,-999.0,62,-99.99,,,0.00,Acu-Link.com,2013-04-15 20:19:00,
2013-04-15 15:34:00,84.9,71.8,29.87,South,180,9.4,-999.0,65,-99.99,,,0.00,Acu-Link.com,2013-04-15 20:34:00,
2013-04-15 15:50:00,82.9,70.8,29.86,ESE,112,4.3,-999.0,67,-99.99,,,0.00,Acu-Link.com,2013-04-15 20:50:00,
2013-04-15 16:05:00,82.8,71.5,29.86,ESE,112,7.8,-999.0,69,-99.99,,,0.00,Acu-Link.com,2013-04-15 21:05:00,
2013-04-15 16:20:00,82.2,71.9,29.87,ESE,112,4.7,-999.0,71,-99.99,,,0.00,Acu-Link.com,2013-04-15 21:20:00,
2013-04-15 16:35:00,81.7,72.2,29.87,ESE,112,6.3,-999.0,73,-99.99,,,0.00,Acu-Link.com,2013-04-15 21:35:00,
2013-04-15 16:51:00,81.5,72.0,29.87,ESE,112,6.3,-999.0,73,-99.99,,,0.00,Acu-Link.com,2013-04-15 21:51:00,
2013-04-15 17:06:00,81.5,72.0,29.87,SSE,157,5.1,-999.0,73,-99.99,,,0.00,Acu-Link.com,2013-04-15 22:06:00,
2013-04-15 17:21:00,81.1,72.4,29.87,East,90,9.4,-999.0,75,-99.99,,,0.00,Acu-Link.com,2013-04-15 22:21:00,
2013-04-15 17:36:00,80.2,72.7,29.87,SE,135,5.1,-999.0,78,-99.99,,,0.00,Acu-Link.com,2013-04-15 22:36:00,
2013-04-15 17:52:00,79.5,72.4,29.87,ESE,112,6.7,-999.0,79,-99.99,,,0.00,Acu-Link.com,2013-04-15 22:52:00,
2013-04-15 18:07:00,78.8,72.8,29.88,South,180,4.7,-999.0,82,-99.99,,,0.00,Acu-Link.com,2013-04-15 23:07:00,
2013-04-15 18:22:00,78.6,73.4,29.87,SE,135,2.7,-999.0,84,-99.99,,,0.00,Acu-Link.com,2013-04-15 23:22:00,
2013-04-15 18:38:00,78.1,73.2,29.87,ESE,112,3.1,-999.0,85,-99.99,,,0.00,Acu-Link.com,2013-04-15 23:38:00,
2013-04-15 18:53:00,78.1,73.5,29.88,ESE,112,4.7,-999.0,86,-99.99,,,0.00,Acu-Link.com,2013-04-15 23:53:00,
2013-04-15 19:08:00,77.7,73.5,29.88,South,180,3.8,-999.0,87,-99.99,,,0.00,Acu-Link.com,2013-04-16 00:08:00,
2013-04-15 19:24:00,77.4,73.5,29.88,SSE,157,4.3,-999.0,88,-99.99,,,0.00,Acu-Link.com,2013-04-16 00:24:00,
2013-04-15 19:39:00,77.0,73.5,29.88,SSE,157,4.7,-999.0,89,-99.99,,,0.00,Acu-Link.com,2013-04-16 00:39:00,
2013-04-15 19:54:00,75.9,73.1,29.88,SSE,157,2.2,-999.0,91,-99.99,,,0.00,Acu-Link.com,2013-04-16 00:54:00,
2013-04-15 20:09:00,75.4,73.2,29.89,SSE,157,2.7,-999.0,93,-99.99,,,0.00,Acu-Link.com,2013-04-16 01:09:00,
2013-04-15 20:24:00,75.2,73.0,29.89,ESE,112,1.6,-999.0,93,-99.99,,,0.00,Acu-Link.com,2013-04-16 01:24:00,
2013-04-15 20:40:00,74.7,72.8,29.89,SSE,157,2.2,-999.0,94,-99.99,,,0.00,Acu-Link.com,2013-04-16 01:40:00,
2013-04-15 20:55:00,74.3,72.8,29.91,SSE,157,1.6,-999.0,95,-99.99,,,0.00,Acu-Link.com,2013-04-16 01:55:00,
2013-04-15 21:10:00,73.9,72.7,29.91,South,180,0.0,-999.0,96,-99.99,,,0.00,Acu-Link.com,2013-04-16 02:10:00,
2013-04-15 21:25:00,73.6,72.7,29.92,ESE,112,1.1,-999.0,97,-99.99,,,0.00,Acu-Link.com,2013-04-16 02:25:00,
2013-04-15 21:41:00,73.6,73.0,29.93,ESE,112,2.2,-999.0,98,-99.99,,,0.00,Acu-Link.com,2013-04-16 02:41:00,
2013-04-15 21:56:00,74.3,73.7,29.93,SE,135,3.1,-999.0,98,-99.99,,,0.00,Acu-Link.com,2013-04-16 02:56:00,
2013-04-15 22:11:00,74.7,73.7,29.94,South,180,5.1,-999.0,97,-99.99,,,0.00,Acu-Link.com,2013-04-16 03:11:00,
2013-04-15 22:27:00,74.8,73.6,29.94,South,180,8.9,-999.0,96,-99.99,,,0.00,Acu-Link.com,2013-04-16 03:27:00,
2013-04-15 22:42:00,74.8,73.3,29.94,SE,135,5.8,-999.0,95,-99.99,,,0.00,Acu-Link.com,2013-04-16 03:42:00,
2013-04-15 22:57:00,74.8,73.3,29.94,ESE,112,4.7,-999.0,95,-99.99,,,0.00,Acu-Link.com,2013-04-16 03:57:00,
2013-04-15 23:12:00,74.8,73.3,29.95,SE,135,2.7,-999.0,95,-99.99,,,0.00,Acu-Link.com,2013-04-16 04:12:00,
2013-04-15 23:28:00,74.7,73.1,29.94,SSE,157,4.3,-999.0,95,-99.99,,,0.00,Acu-Link.com,2013-04-16 04:28:00,
2013-04-15 23:43:00,74.7,73.1,29.95,SE,135,4.7,-999.0,95,-99.99,,,0.00,Acu-Link.com,2013-04-16 04:43:00,
2013-04-15 23:58:00,74.5,73.3,29.94,SSE,157,4.7,-999.0,96,-99.99,,,0.00,Acu-Link.com,2013-04-16 04:58:00,